createdAt,value
2022-09-27T00:01:39.457Z,0.70
2022-09-27T00:04:06.313Z,1.75
2022-09-27T00:06:34.911Z,1.33
2022-09-27T00:09:03.716Z,0.85
2022-09-27T00:11:36.127Z,0.43
2022-09-27T00:14:04.188Z,1.67
2022-09-27T00:16:34.158Z,0.30
2022-09-27T00:19:10.919Z,0.50
2022-09-27T00:21:37.731Z,1.02
2022-09-27T00:24:04.724Z,1.45
2022-09-27T00:26:31.723Z,0.40
2022-09-27T00:28:58.730Z,0.32
2022-09-27T00:31:29.586Z,1.30
2022-09-27T00:34:01.872Z,0.82
2022-09-27T00:36:29.867Z,0.73
2022-09-27T00:38:57.445Z,1.20
2022-09-27T00:41:27.077Z,0.55
2022-09-27T00:43:57.148Z,0.63
2022-09-27T00:46:49.390Z,0.43
2022-09-27T00:49:23.833Z,0.50
2022-09-27T00:51:55.626Z,0.43
2022-09-27T00:54:26.440Z,0.52
2022-09-27T00:56:55.483Z,0.20
2022-09-27T00:59:30.613Z,0.85
2022-09-27T01:01:57.692Z,0.47
2022-09-27T01:04:30.799Z,0.40
2022-09-27T01:06:57.643Z,0.65
2022-09-27T01:09:25.285Z,0.60
2022-09-27T01:12:13.612Z,0.50
2022-09-27T01:15:00.667Z,0.52
2022-09-27T01:17:33.705Z,1.10
2022-09-27T01:20:31.185Z,1.13
2022-09-27T01:23:33.154Z,0.60
2022-09-27T01:26:09.556Z,1.73
2022-09-27T01:29:12.910Z,1.10
2022-09-27T01:31:56.567Z,2.15
2022-09-27T01:34:58.732Z,1.27
2022-09-27T01:37:43.584Z,0.63
2022-09-27T01:40:16.378Z,0.95
2022-09-27T01:43:21.407Z,0.57
2022-09-27T01:45:56.688Z,0.82
2022-09-27T01:48:47.381Z,0.55
2022-09-27T01:51:27.839Z,1.77
2022-09-27T01:54:01.025Z,1.65
2022-09-27T01:56:52.603Z,0.50
2022-09-27T01:59:35.590Z,0.60
2022-09-27T02:02:20.231Z,1.85
2022-09-27T02:05:10.696Z,2.20
2022-09-27T02:07:47.437Z,0.40
2022-09-27T02:10:27.999Z,0.50
2022-09-27T02:13:04.948Z,0.40
2022-09-27T02:15:57.495Z,1.65
2022-09-27T02:18:59.806Z,1.25
2022-09-27T02:21:37.100Z,0.90
2022-09-27T02:24:06.944Z,2.25
2022-09-27T02:26:38.641Z,0.80
2022-09-27T02:29:19.265Z,0.70
2022-09-27T02:31:51.095Z,1.25
2022-09-27T02:34:29.086Z,0.75
2022-09-27T02:36:56.253Z,0.50
2022-09-27T02:39:24.011Z,0.93
2022-09-27T02:42:00.218Z,2.15
2022-09-27T02:44:28.644Z,2.78
2022-09-27T02:47:17.443Z,1.30
2022-09-27T02:49:58.294Z,4.60
2022-09-27T02:53:14.676Z,2.78
2022-09-27T02:56:18.619Z,4.15
2022-09-27T02:59:15.772Z,6.28
2022-09-27T03:02:14.144Z,3.92
2022-09-27T03:05:34.082Z,4.85
2022-09-27T03:08:01.917Z,4.80
2022-09-27T03:10:29.780Z,8.80
2022-09-27T03:12:58.761Z,7.63
2022-09-27T03:15:25.709Z,5.28
2022-09-27T03:18:02.155Z,6.32
2022-09-27T03:20:47.280Z,4.47
2022-09-27T03:23:16.835Z,4.90
2022-09-27T03:25:43.630Z,5.85
2022-09-27T03:28:13.291Z,7.43
2022-09-27T03:30:42.668Z,10.70
2022-09-27T03:33:10.919Z,5.82
2022-09-27T03:35:44.406Z,7.55
2022-09-27T03:38:11.580Z,7.60
2022-09-27T03:40:39.302Z,11.70
2022-09-27T03:43:07.625Z,6.25
2022-09-27T03:45:34.515Z,8.65
2022-09-27T03:48:05.677Z,8.45
2022-09-27T03:50:32.596Z,10.00
2022-09-27T03:52:59.418Z,8.05
2022-09-27T03:55:26.452Z,9.07
2022-09-27T03:57:53.549Z,9.20
2022-09-27T04:00:21.692Z,7.90
2022-09-27T04:02:48.803Z,7.13
2022-09-27T04:05:21.297Z,14.02
2022-09-27T04:07:49.591Z,9.63
2022-09-27T04:10:18.214Z,8.30
2022-09-27T04:12:45.327Z,10.90
2022-09-27T04:15:12.389Z,7.05
2022-09-27T04:17:51.706Z,9.52
2022-09-27T04:20:34.076Z,9.63
2022-09-27T04:23:05.061Z,6.95
2022-09-27T04:25:34.619Z,6.97
2022-09-27T04:28:09.265Z,6.82
2022-09-27T04:30:36.271Z,5.57
2022-09-27T04:33:28.832Z,5.78
2022-09-27T04:36:25.119Z,5.57
2022-09-27T04:39:04.678Z,2.67
2022-09-27T04:41:32.600Z,3.58
2022-09-27T04:44:02.456Z,1.77
2022-09-27T04:46:34.173Z,1.60
2022-09-27T04:49:02.111Z,1.10
2022-09-27T04:51:30.439Z,0.80
2022-09-27T04:53:58.386Z,0.90
2022-09-27T04:56:31.953Z,2.15
2022-09-27T04:59:01.327Z,1.05
2022-09-27T05:01:30.340Z,3.15
2022-09-27T05:04:00.067Z,0.88
2022-09-27T05:06:28.545Z,3.28
2022-09-27T05:08:59.202Z,4.13
2022-09-27T05:11:28.272Z,1.70
2022-09-27T05:14:14.291Z,3.17
2022-09-27T05:16:50.916Z,2.28
2022-09-27T05:19:44.047Z,2.78
2022-09-27T05:22:21.318Z,1.15
2022-09-27T05:24:48.264Z,3.15
2022-09-27T05:27:18.639Z,4.80
2022-09-27T05:29:46.246Z,2.08
2022-09-27T05:32:25.870Z,5.13
2022-09-27T05:35:08.378Z,3.70
2022-09-27T05:37:35.138Z,3.38
2022-09-27T05:40:16.932Z,3.05
2022-09-27T05:42:50.473Z,2.58
2022-09-27T05:45:18.039Z,4.03
2022-09-27T05:47:52.105Z,3.55
2022-09-27T05:50:19.121Z,3.35
2022-09-27T05:52:45.882Z,4.75
2022-09-27T05:55:13.865Z,6.13
2022-09-27T05:57:40.922Z,4.95
2022-09-27T06:00:10.262Z,2.42
2022-09-27T06:02:40.385Z,2.40
2022-09-27T06:05:07.815Z,3.63
2022-09-27T06:08:09.672Z,2.25
2022-09-27T06:10:42.311Z,1.40
2022-09-27T06:13:15.283Z,1.80
2022-09-27T06:15:44.772Z,5.82
2022-09-27T06:18:17.967Z,1.67
2022-09-27T06:20:47.232Z,1.10
2022-09-27T06:23:19.605Z,2.00
2022-09-27T06:25:49.350Z,1.05
2022-09-27T06:31:23.742Z,3.42
2022-09-27T06:33:58.961Z,2.53
2022-09-27T06:36:25.834Z,2.72
2022-09-27T06:38:52.633Z,3.90
2022-09-27T06:41:29.477Z,3.47
2022-09-27T06:44:14.951Z,3.13
2022-09-27T06:47:00.332Z,4.38
2022-09-27T06:49:46.225Z,3.45
2022-09-27T06:52:15.798Z,3.25
2022-09-27T06:54:42.877Z,3.58
2022-09-27T06:57:09.658Z,2.90
2022-09-27T06:59:55.444Z,2.20
2022-09-27T07:02:40.891Z,2.65
2022-09-27T07:05:28.500Z,2.03
2022-09-27T07:08:19.528Z,0.90
2022-09-27T07:10:46.474Z,1.90
2022-09-27T07:13:13.270Z,3.25
2022-09-27T07:15:41.917Z,3.40
2022-09-27T07:18:12.990Z,4.13
2022-09-27T07:20:39.989Z,0.80
2022-09-27T07:23:08.098Z,2.78
2022-09-27T07:25:36.029Z,1.80
2022-09-27T07:28:04.990Z,2.40
2022-09-27T07:30:32.675Z,4.28
2022-09-27T07:33:01.085Z,3.35
2022-09-27T07:35:28.826Z,4.32
2022-09-27T07:37:56.952Z,3.03
2022-09-27T07:40:25.167Z,5.53
2022-09-27T07:42:59.294Z,3.83
2022-09-27T07:45:26.757Z,4.78
2022-09-27T07:48:28.640Z,2.70
2022-09-27T07:51:14.027Z,1.60
2022-09-27T07:53:47.951Z,2.20
2022-09-27T07:56:37.797Z,1.90
2022-09-27T07:59:06.791Z,4.63
2022-09-27T08:01:34.721Z,2.33
2022-09-27T08:04:01.913Z,6.50
2022-09-27T08:06:29.922Z,3.17
2022-09-27T08:08:58.695Z,2.75
2022-09-27T08:11:27.210Z,1.98
2022-09-27T08:13:55.680Z,2.75
2022-09-27T08:16:25.183Z,2.42
2022-09-27T08:19:11.331Z,3.90
2022-09-27T08:22:14.041Z,2.92
2022-09-27T08:25:03.545Z,2.92
2022-09-27T08:27:39.059Z,4.53
2022-09-27T08:30:21.718Z,3.15
2022-09-27T08:32:48.523Z,2.22
2022-09-27T08:35:15.664Z,3.25
2022-09-27T08:37:42.467Z,4.32
2022-09-27T08:40:17.795Z,3.78
2022-09-27T08:43:06.196Z,3.50
2022-09-27T08:45:47.706Z,2.78
2022-09-27T08:48:17.129Z,4.18
2022-09-27T08:50:46.754Z,1.92
2022-09-27T08:53:14.731Z,1.63
2022-09-27T08:55:50.790Z,9.75
2022-09-27T08:58:30.087Z,3.17
2022-09-27T09:01:01.161Z,4.60
2022-09-27T09:03:38.593Z,1.85
2022-09-27T09:06:19.068Z,3.33
2022-09-27T09:09:08.032Z,6.05
2022-09-27T09:11:56.358Z,3.25
2022-09-27T09:14:48.522Z,3.28
2022-09-27T09:17:20.453Z,2.50
2022-09-27T09:20:03.667Z,4.03
2022-09-27T09:22:42.348Z,4.63
2022-09-27T09:25:40.208Z,2.53
2022-09-27T09:28:34.615Z,6.78
2022-09-27T09:31:22.096Z,7.80
2022-09-27T09:34:00.591Z,4.13
2022-09-27T09:36:37.432Z,6.55
2022-09-27T09:39:28.242Z,7.82
2022-09-27T09:42:28.162Z,2.45
2022-09-27T09:45:33.047Z,6.35
2022-09-27T09:48:15.350Z,3.88
2022-09-27T09:50:49.494Z,1.63
2022-09-27T09:53:40.154Z,3.95
2022-09-27T09:56:19.482Z,1.08
2022-09-27T09:58:59.266Z,2.25
2022-09-27T10:01:46.962Z,2.75
2022-09-27T10:04:28.038Z,3.58
2022-09-27T10:07:00.494Z,1.75
2022-09-27T10:09:31.529Z,1.58
2022-09-27T10:12:37.853Z,2.05
2022-09-27T10:15:06.567Z,1.50
2022-09-27T10:17:40.050Z,1.35
2022-09-27T10:20:42.299Z,2.50
2022-09-27T10:23:15.873Z,2.38
2022-09-27T10:26:10.338Z,1.10
2022-09-27T10:28:46.045Z,0.73
2022-09-27T10:31:18.065Z,0.43
2022-09-27T10:33:56.213Z,1.08
2022-09-27T10:36:31.816Z,1.00
2022-09-27T10:39:01.996Z,0.95
2022-09-27T10:41:41.558Z,2.15
2022-09-27T10:44:29.391Z,1.13
2022-09-27T10:47:16.492Z,2.03
2022-09-27T10:49:53.791Z,1.20
2022-09-27T10:52:35.923Z,1.80
2022-09-27T10:55:18.814Z,1.08
2022-09-27T10:57:52.002Z,1.08
2022-09-27T11:00:32.468Z,0.63
2022-09-27T11:03:03.393Z,4.13
2022-09-27T11:05:39.590Z,1.20
2022-09-27T11:08:18.933Z,0.90
2022-09-27T11:11:22.272Z,1.25
2022-09-27T11:13:58.347Z,0.35
2022-09-27T11:16:29.926Z,1.00
2022-09-27T11:19:00.435Z,1.88
2022-09-27T11:22:03.797Z,1.38
2022-09-27T11:24:54.735Z,4.68
2022-09-27T11:27:42.661Z,2.25
2022-09-27T11:30:41.921Z,1.65
2022-09-27T11:33:58.998Z,2.50
2022-09-27T11:37:04.539Z,2.03
2022-09-27T11:39:54.751Z,1.50
2022-09-27T11:42:52.039Z,3.78
2022-09-27T11:46:03.377Z,0.65
2022-09-27T11:48:46.698Z,1.77
2022-09-27T11:51:20.037Z,1.75
2022-09-27T11:53:56.648Z,1.25
2022-09-27T11:56:38.091Z,1.50
2022-09-27T11:59:26.075Z,1.13
2022-09-27T12:02:30.150Z,1.20
2022-09-27T12:05:04.771Z,1.85
2022-09-27T12:07:57.865Z,2.72
2022-09-27T12:10:25.234Z,2.00
2022-09-27T12:12:55.736Z,1.92
2022-09-27T12:15:24.647Z,2.35
2022-09-27T12:17:56.672Z,1.27
2022-09-27T12:20:31.202Z,3.45
2022-09-27T12:23:05.488Z,4.07
2022-09-27T12:26:03.443Z,4.78
2022-09-27T12:29:09.533Z,4.65
2022-09-27T12:32:04.093Z,1.50
2022-09-27T12:34:42.894Z,2.30
2022-09-27T12:37:14.989Z,3.75
2022-09-27T12:39:55.648Z,4.88
2022-09-27T12:42:35.909Z,2.17
2022-09-27T12:45:14.965Z,1.45
2022-09-27T12:47:42.226Z,2.80
2022-09-27T12:50:26.275Z,2.63
2022-09-27T12:52:56.267Z,6.15
2022-09-27T12:55:31.024Z,5.32
2022-09-27T12:58:29.696Z,2.78
2022-09-27T13:01:38.891Z,6.57
2022-09-27T13:04:35.038Z,3.38
2022-09-27T13:07:21.240Z,2.70
2022-09-27T13:10:05.864Z,2.40
2022-09-27T13:12:34.837Z,2.08
2022-09-27T13:15:01.695Z,1.92
2022-09-27T13:17:40.347Z,1.13
2022-09-27T13:20:36.821Z,3.67
2022-09-27T13:23:19.336Z,1.95
2022-09-27T13:25:59.665Z,1.88
2022-09-27T13:28:31.874Z,2.15
2022-09-27T13:31:12.950Z,2.25
2022-09-27T13:33:48.944Z,1.23
2022-09-27T13:36:28.233Z,5.53
2022-09-27T13:39:05.819Z,1.73
2022-09-27T13:41:54.466Z,0.95
2022-09-27T13:44:50.988Z,1.88
2022-09-27T13:47:21.782Z,3.38
2022-09-27T13:49:52.210Z,1.25
2022-09-27T13:52:33.650Z,3.10
2022-09-27T13:55:43.317Z,3.22
2022-09-27T13:58:41.941Z,2.97
2022-09-27T14:01:42.091Z,1.75
2022-09-27T14:04:22.182Z,2.45
2022-09-27T14:06:53.393Z,1.60
2022-09-27T14:09:39.930Z,3.72
2022-09-27T14:12:19.911Z,2.30
2022-09-27T14:14:49.499Z,1.95
2022-09-27T14:17:17.274Z,1.58
2022-09-27T14:19:45.873Z,2.25
2022-09-27T14:22:16.799Z,2.25
2022-09-27T14:24:58.049Z,2.15
2022-09-27T14:27:35.532Z,6.35
2022-09-27T14:30:25.394Z,0.60
2022-09-27T14:33:01.649Z,0.70
2022-09-27T14:36:07.402Z,1.13
2022-09-27T14:38:38.412Z,2.72
2022-09-27T14:41:16.132Z,2.45
2022-09-27T14:43:50.553Z,1.83
2022-09-27T14:46:27.499Z,1.08
2022-09-27T14:48:55.858Z,2.17
2022-09-27T14:51:32.866Z,2.08
2022-09-27T14:54:04.047Z,1.70
2022-09-27T14:56:37.779Z,2.17
2022-09-27T14:59:11.358Z,0.88
2022-09-27T15:01:40.037Z,1.70
2022-09-27T15:04:13.896Z,2.25
2022-09-27T15:06:41.023Z,1.52
2022-09-27T15:09:10.253Z,2.83
2022-09-27T15:11:39.442Z,2.30
2022-09-27T15:14:07.263Z,2.45
2022-09-27T15:16:34.596Z,1.60
2022-09-27T15:19:07.227Z,0.85
2022-09-27T15:21:36.897Z,2.67
2022-09-27T15:24:04.303Z,1.90
2022-09-27T15:26:47.538Z,1.52
2022-09-27T15:29:23.599Z,2.40
2022-09-27T15:32:08.084Z,1.58
2022-09-27T15:34:37.283Z,2.25
2022-09-27T15:37:06.174Z,1.20
2022-09-27T15:39:35.706Z,1.83
2022-09-27T15:42:19.646Z,1.38
2022-09-27T15:44:50.777Z,3.53
2022-09-27T15:47:32.576Z,3.33
2022-09-27T15:50:14.897Z,1.52
2022-09-27T15:52:45.204Z,2.17
2022-09-27T15:55:12.561Z,3.42
2022-09-27T15:57:40.458Z,3.40
2022-09-27T16:00:12.544Z,2.92
2022-09-27T16:02:39.284Z,1.92
2022-09-27T16:05:06.512Z,1.35
2022-09-27T16:07:33.238Z,2.40
2022-09-27T16:10:00.644Z,2.45
2022-09-27T16:12:30.219Z,1.60
2022-09-27T16:14:57.084Z,2.33
2022-09-27T16:17:23.942Z,1.00
2022-09-27T16:19:50.705Z,1.20
2022-09-27T16:22:17.425Z,1.67
2022-09-27T16:24:44.405Z,11.05
2022-09-27T16:27:11.147Z,5.85
2022-09-27T16:29:41.201Z,14.70
2022-09-27T16:32:11.080Z,15.07
2022-09-27T16:34:38.239Z,3.65
2022-09-27T16:37:05.790Z,2.70
2022-09-27T16:39:32.657Z,3.65
2022-09-27T16:41:59.922Z,5.72
2022-09-27T16:44:27.735Z,6.13
2022-09-27T16:46:54.684Z,4.05
2022-09-27T16:49:44.758Z,7.75
2022-09-27T16:52:11.557Z,6.35
2022-09-27T16:54:38.332Z,5.15
2022-09-27T16:57:05.244Z,10.35
2022-09-27T16:59:32.479Z,8.55
2022-09-27T17:01:59.424Z,3.10
2022-09-27T17:04:27.760Z,3.67
2022-09-27T17:06:58.207Z,3.05
2022-09-27T17:09:25.301Z,5.60
2022-09-27T17:11:52.082Z,2.35
2022-09-27T17:14:18.981Z,3.58
2022-09-27T17:16:47.174Z,3.47
2022-09-27T17:19:15.085Z,4.05
2022-09-27T17:21:43.503Z,4.60
2022-09-27T17:24:10.695Z,5.38
2022-09-27T17:26:38.031Z,5.18
2022-09-27T17:29:04.915Z,7.75
2022-09-27T17:31:34.617Z,5.82
2022-09-27T17:34:01.972Z,5.53
2022-09-27T17:36:33.894Z,4.15
2022-09-27T17:39:01.553Z,3.03
2022-09-27T17:41:29.453Z,4.60
2022-09-27T17:43:58.886Z,4.15
2022-09-27T17:46:29.268Z,5.82
2022-09-27T17:49:15.367Z,2.78
2022-09-27T17:51:45.441Z,3.15
2022-09-27T17:54:12.529Z,4.60
2022-09-27T17:56:41.349Z,2.75
2022-09-27T17:59:10.114Z,1.85
2022-09-27T18:01:38.768Z,4.22
2022-09-27T18:04:11.070Z,5.55
2022-09-27T18:06:43.997Z,7.85
2022-09-27T18:09:12.622Z,8.68
2022-09-27T18:11:40.106Z,6.85
2022-09-27T18:14:07.473Z,7.35
2022-09-27T18:16:39.090Z,9.38
2022-09-27T18:19:07.902Z,10.70
2022-09-27T18:21:35.333Z,10.65
2022-09-27T18:24:06.404Z,9.10
2022-09-27T18:26:39.162Z,6.15
2022-09-27T18:29:12.271Z,5.80
2022-09-27T18:31:47.502Z,3.63
2022-09-27T18:34:16.848Z,4.20
2022-09-27T18:36:44.551Z,5.32
2022-09-27T18:39:17.828Z,7.70
2022-09-27T18:41:45.746Z,10.30
2022-09-27T18:44:14.358Z,14.75
2022-09-27T18:46:41.591Z,11.50
2022-09-27T18:49:11.585Z,4.40
2022-09-27T18:51:43.444Z,5.60
2022-09-27T18:54:21.991Z,5.22
2022-09-27T18:56:50.778Z,2.95
2022-09-27T18:59:20.728Z,4.75
2022-09-27T19:01:47.744Z,2.60
2022-09-27T19:04:21.530Z,3.78
2022-09-27T19:06:56.173Z,2.00
2022-09-27T19:09:24.533Z,3.00
2022-09-27T19:11:51.291Z,3.22
2022-09-27T19:14:20.622Z,1.95
2022-09-27T19:16:48.578Z,2.53
2022-09-27T19:19:16.969Z,2.83
2022-09-27T19:21:44.419Z,2.83
2022-09-27T19:24:11.872Z,3.40
2022-09-27T19:26:38.743Z,2.65
2022-09-27T19:29:06.513Z,5.93
2022-09-27T19:31:33.906Z,7.30
2022-09-27T19:34:00.954Z,5.20
2022-09-27T19:36:28.285Z,4.38
2022-09-27T19:38:58.351Z,3.10
2022-09-27T19:41:25.723Z,3.42
2022-09-27T19:43:53.016Z,5.38
2022-09-27T19:46:21.203Z,3.13
2022-09-27T19:48:49.646Z,2.53
2022-09-27T19:51:19.257Z,3.15
2022-09-27T19:53:46.473Z,2.67
2022-09-27T19:56:14.559Z,3.05
2022-09-27T19:58:42.514Z,2.00
2022-09-27T20:01:11.978Z,3.47
2022-09-27T20:03:41.443Z,2.03
2022-09-27T20:06:11.152Z,2.38
2022-09-27T20:08:38.075Z,4.65
2022-09-27T20:11:07.954Z,4.95
2022-09-27T20:13:36.399Z,4.00
2022-09-27T20:16:05.226Z,3.85
2022-09-27T20:18:32.723Z,2.83
2022-09-27T20:21:03.735Z,1.98
2022-09-27T20:23:32.465Z,1.95
2022-09-27T20:26:02.713Z,3.78
2022-09-27T20:28:29.971Z,4.97
2022-09-27T20:31:05.875Z,4.93
2022-09-27T20:33:41.585Z,3.58
2022-09-27T20:36:16.335Z,3.35
2022-09-27T20:38:45.164Z,2.80
2022-09-27T20:41:14.172Z,4.80
2022-09-27T20:43:40.930Z,2.90
2022-09-27T20:46:11.160Z,2.22
2022-09-27T20:48:41.183Z,1.45
2022-09-27T20:51:08.420Z,2.53
2022-09-27T20:53:35.758Z,2.83
2022-09-27T20:56:03.161Z,2.88
2022-09-27T20:58:32.003Z,2.25
2022-09-27T21:01:05.769Z,2.42
2022-09-27T21:03:33.030Z,2.60
2022-09-27T21:05:59.964Z,2.25
2022-09-27T21:08:30.534Z,4.18
2022-09-27T21:11:04.659Z,2.92
2022-09-27T21:13:31.634Z,3.25
2022-09-27T21:16:03.411Z,3.50
2022-09-27T21:18:30.236Z,2.67
2022-09-27T21:21:03.019Z,3.40
2022-09-27T21:23:30.993Z,5.05
2022-09-27T21:26:11.720Z,3.58
2022-09-27T21:28:42.401Z,2.40
2022-09-27T21:31:11.548Z,2.72
2022-09-27T21:33:39.162Z,2.53
2022-09-27T21:36:08.577Z,2.45
2022-09-27T21:38:35.450Z,4.22
2022-09-27T21:41:04.975Z,4.07
2022-09-27T21:43:34.701Z,4.13
2022-09-27T21:46:03.369Z,3.08
2022-09-27T21:48:30.796Z,4.05
2022-09-27T21:51:12.166Z,2.95
2022-09-27T21:53:41.666Z,3.38
2022-09-27T21:56:09.537Z,2.13
2022-09-27T21:58:39.134Z,2.15
2022-09-27T22:01:21.831Z,2.13
2022-09-27T22:03:50.063Z,2.67
2022-09-27T22:06:19.378Z,1.80
2022-09-27T22:08:47.791Z,2.08
2022-09-27T22:11:17.218Z,3.53
2022-09-27T22:13:44.138Z,1.25
2022-09-27T22:16:14.699Z,4.47
2022-09-27T22:18:46.537Z,2.55
2022-09-27T22:21:17.166Z,2.42
2022-09-27T22:23:47.247Z,2.05
2022-09-27T22:26:21.492Z,3.13
2022-09-27T22:28:48.631Z,2.28
2022-09-27T22:31:18.585Z,2.00
2022-09-27T22:33:54.453Z,3.63
2022-09-27T22:36:21.704Z,1.65
2022-09-27T22:38:52.548Z,1.85
2022-09-27T22:41:20.255Z,3.28
2022-09-27T22:43:47.515Z,2.70
2022-09-27T22:46:14.878Z,3.47
2022-09-27T22:48:42.490Z,1.70
2022-09-27T22:51:09.896Z,1.40
2022-09-27T22:53:37.748Z,1.38
2022-09-27T22:56:08.403Z,3.55
2022-09-27T22:58:36.710Z,2.33
2022-09-27T23:01:20.179Z,3.65
2022-09-27T23:03:49.236Z,3.67
2022-09-27T23:06:18.265Z,1.70
2022-09-27T23:08:45.088Z,2.50
2022-09-27T23:11:14.154Z,3.08
2022-09-27T23:13:42.746Z,1.90
2022-09-27T23:16:13.129Z,1.40
2022-09-27T23:18:40.626Z,1.73
2022-09-27T23:21:09.836Z,2.28
2022-09-27T23:23:41.566Z,4.72
2022-09-27T23:26:11.859Z,3.65
2022-09-27T23:28:38.920Z,3.65
2022-09-27T23:31:08.628Z,5.47
2022-09-27T23:33:40.410Z,3.33
2022-09-27T23:36:12.357Z,5.68
2022-09-27T23:38:40.996Z,3.05
2022-09-27T23:41:08.420Z,4.88
2022-09-27T23:43:35.469Z,8.35
2022-09-27T23:46:05.709Z,5.47
2022-09-27T23:48:34.635Z,6.28
2022-09-27T23:51:02.713Z,7.80
2022-09-27T23:53:29.877Z,9.88
2022-09-27T23:56:05.488Z,5.50
2022-09-27T23:58:33.910Z,8.77
